Bazetta, Ohio
Current Conditions -  °F | °C
As of 5:06 AM on Thursday 23 Oct 2014 (Local Time) from KYNG Reporting Station
Few Clouds Few Clouds  
Wind Chill: 37°   Ceiling: Unl
Heat Index: 42°   Visibility: 8mi
Dew Point: 40°   Wind: 8mph
Humidity: 92%   Direction: 340°NNW
Pressure: 30.15"   Gusts: NA
Location:  41.3436°N, 80.7192°W
Report Text: KYNG 230906Z 34007KT 8SM FEW019 06/04 A3015 RMK AO2 T00560044
Loading
Personal Weather Stations






























Interactive Weather Map
Tropical Storm Tracking
New forecast layout! Learn more

10-Day Weather Forecast

Advertisements
Track Severe Weather on mobile